Overview Statistics Trail Chart Weather Telemetry Raw packets
 

This is the latest recevied weather packets stored in our database for station/object SP6YY-15. If no packets are shown the sender has not sent any weather packets the latest 10 day(s).

<< 12 13 14 15 16 >>
Time Temp. Humidity Pressure Rain* Wind** Luminosity Snow
1777280983 30.56° C 18% 1010.8 hPa - - - -
1777280684 30.56° C 18% 1010.8 hPa - - - -
1777276182 26.11° C 17% 1011 hPa - - - -
1777275882 26.11° C 17% 1010.9 hPa - - - -
1777275581 25.56° C 17% 1011 hPa - - - -
1777275281 25.56° C 17% 1011 hPa - - - -
1777274981 26.11° C 17% 1011 hPa - - - -
1777274681 26.11° C 16% 1011.1 hPa - - - -
1777274381 26.67° C 17% 1011.1 hPa - - - -
1777274081 27.22° C 16% 1011.1 hPa - - - -
1777273781 27.78° C 16% 1011.1 hPa - - - -
1777273481 29.44° C 16% 1011.1 hPa - - - -
1777273181 32.22° C 15% 1011.3 hPa - - - -
1777272881 34.44° C 15% 1011.4 hPa - - - -
1777272569 33.33° C 15% 1011.3 hPa - - - -
1777272269 32.22° C 16% 1011.6 hPa - - - -
1777271968 30.56° C 16% 1011.3 hPa - - - -
1777271668 28.33° C 17% 1011.3 hPa - - - -
1777271369 25.56° C 19% 1011.3 hPa - - - -
1777271028 20° C 20% 1011.6 hPa - - - -
1777052803 28.33° C 16% 1002.2 hPa - - - -
1777052503 27.22° C 16% 1002.5 hPa - - - -
1777052203 27.22° C 15% 1002.4 hPa - - - -
1777051903 27.78° C 15% 1002.2 hPa - - - -
1777050703 29.44° C 15% 1002.3 hPa - - - -

* Rain since midnight (hover to see other rain measurements)
** Current wind speed in m/s (hover to see current wind gust speed)